Latest Weather Observations for Shay Gap

IDW60801

Issued at 11:32 pm WST Sunday 21 December 2014 (issued every 30 minutes, with the page automatically refreshed every 10 minutes)

About weather observations | Map of weather stations | Latest weather observations for WA | Other Formats
Station Details ID: 504045 Name: SHAY GAP Lat: -20.43 Lon: 120.13 Height: 173.83 m
Data from the previous 72 hours. | See also: Recent months for locations in Western Australia
Date/Time
WST
Temp
°C
App
Temp
°C
Dew
Point
Rel
Hum
%
Delta-T
°C
Wind Press
QNH
hPa
Press
MSL
hPa
Rain
since 9 am
mm
Dir
 
Spd
km/h
Gust
km/h
Spd
kts
Gust
kts
21/11:30pm 28.4 29.6 19.9 60 5.6 WNW 13 22 7 12 1008.5 1007.0 0.0
21/11:00pm 28.5 28.0 19.1 56 6.1 W 20 26 11 14 1008.9 1007.4 0.0
21/10:30pm 29.0 28.4 20.4 59 5.7 W 24 32 13 17 1009.1 1007.6 0.0
21/10:00pm 28.9 28.6 19.5 57 6.2 WNW 20 30 11 16 1008.6 1007.1 0.0
21/09:30pm 29.2 28.9 19.2 54 6.5 WNW 19 26 10 14 1008.3 1006.8 0.0
21/09:00pm 29.7 29.4 19.1 53 6.9 NW 19 26 10 14 1008.3 1006.8 0.0
21/08:30pm 30.1 29.8 19.2 52 7.1 NW 19 26 10 14 1008.0 1006.5 0.0
21/08:00pm 29.9 30.9 21.0 59 6.0 NW 17 24 9 13 1007.5 1006.0 0.0
21/07:30pm 30.4 30.4 20.9 57 6.4 NW 22 28 12 15 1006.8 1005.3 0.0
21/07:00pm 31.2 30.5 20.2 52 7.3 NW 24 30 13 16 1006.3 1004.8 0.0
21/06:30pm 31.9 30.4 19.5 47 8.2 NW 26 35 14 19 1006.0 1004.5 0.0
21/06:00pm 33.2 31.3 19.3 44 9.2 NW 28 35 15 19 1005.5 1004.0 0.0
21/05:30pm 34.0 31.8 19.6 42 9.6 NW 30 37 16 20 1005.4 1003.9 0.0
21/05:00pm 35.2 33.4 19.6 40 10.4 NW 28 35 15 19 1005.1 1003.6 0.0
21/04:30pm 36.5 34.5 19.9 38 11.2 NNW 30 41 16 22 1005.1 1003.6 0.0
21/04:00pm 36.1 34.6 19.5 37 11.1 NW 26 35 14 19 1005.5 1004.0 0.0
21/03:30pm 36.6 35.6 20.4 38 11.0 NW 26 39 14 21 1005.7 1004.2 0.0
21/03:00pm 36.4 35.5 20.6 39 10.7 NW 26 35 14 19 1006.0 1004.5 0.0
21/02:30pm 37.5 37.4 20.8 38 11.4 NNW 22 35 12 19 1006.5 1005.0 0.0
21/02:00pm 37.0 36.1 20.7 38 11.1 NNW 26 35 14 19 1006.7 1005.2 0.0
21/01:30pm 38.2 38.1 21.4 37 11.6 NNW 24 37 13 20 1007.0 1005.5 0.0
21/01:00pm 36.7 36.9 20.5 39 11.0 NW 20 39 11 21 1007.4 1005.9 0.0
21/12:30pm 37.2 37.5 19.6 35 11.8 N 17 28 9 15 1007.7 1006.2 0.0
21/12:00pm 37.5 38.3 19.0 34 12.4 NE 13 24 7 13 1008.1 1006.6 0.0
21/11:30am 36.8 37.7 19.3 36 11.7 N 13 24 7 13 1008.4 1006.9 0.0
21/11:00am 35.6 36.6 17.8 35 11.6 NNE 9 19 5 10 1008.9 1007.4 0.0
21/10:30am 34.7 35.5 19.1 39 10.3 NW 13 20 7 11 1009.4 1007.9 0.0
21/10:00am 33.6 34.2 18.5 40 9.9 NNW 13 22 7 12 1009.8 1008.4 0.0
21/09:30am 32.7 34.1 17.7 40 9.7 WNW 7 15 4 8 1010.1 1008.7 0.0
21/09:00am 31.7 31.8 18.3 45 8.7 NNW 15 20 8 11 1010.4 1009.0 1.2
21/08:30am 31.5 32.8 19.2 48 8.1 NNW 11 15 6 8 1010.5 1009.1 1.2
21/08:00am 30.7 32.9 20.3 53 6.9 NNW 9 13 5 7 1010.5 1009.1 1.2
21/07:30am 29.6 31.9 21.3 61 5.6 N 11 17 6 9 1010.2 1008.8 1.2
21/07:00am 28.8 31.1 21.3 64 5.0 NNW 11 15 6 8 1009.9 1008.5 1.2
21/06:30am 27.3 30.8 22.9 77 3.0 N 9 13 5 7 1009.8 1008.4 1.2
21/06:00am 26.3 30.4 23.2 83 2.1 N 7 9 4 5 1009.7 1008.3 1.2
21/05:30am 26.1 30.3 23.4 85 1.9 N 7 9 4 5 1009.5 1008.1 1.2
21/05:00am 26.2 30.4 23.1 83 2.1 NW 6 7 3 4 1009.1 1007.6 1.2
21/04:30am 26.1 30.0 23.0 83 2.1 WNW 7 9 4 5 1008.8 1007.3 1.2
21/04:00am 26.2 30.1 22.9 82 2.3 WNW 7 9 4 5 1008.8 1007.3 1.2
21/03:30am 26.0 29.7 22.5 81 2.4 WSW 7 9 4 5 1008.7 1007.2 1.2
21/03:00am 26.1 29.7 22.4 80 2.5 W 7 9 4 5 1008.6 1007.1 1.2
21/02:30am 26.7 29.8 22.1 76 3.1 WSW 9 13 5 7 1008.7 1007.2 1.2
21/02:00am 27.0 28.5 22.0 74 3.4 WSW 17 24 9 13 1008.6 1007.1 1.2
21/01:30am 27.4 29.0 22.1 73 3.6 WSW 17 20 9 11 1008.4 1006.9 1.2
21/01:00am 27.4 28.8 22.6 75 3.3 W 19 26 10 14 1008.5 1007.0 1.0
21/12:30am 27.5 30.5 22.7 75 3.3 WSW 11 13 6 7 1008.9 1007.4 1.0
21/12:00am 27.7 30.4 22.9 75 3.3 W 13 19 7 10 1009.2 1007.7 1.0
 
Date/Time
WST
Temp
°C
App
Temp
°C
Dew
Point
Rel
Hum
%
Delta-T
°C
Wind Press
QNH
hPa
Press
MSL
hPa
Rain
since 9 am
mm
Dir
 
Spd
km/h
Gust
km/h
Spd
kts
Gust
kts
20/11:30pm 27.5 29.8 23.5 79 2.8 W 17 20 9 11 1009.2 1007.7 1.0
20/11:00pm 27.4 31.7 23.6 80 2.6 NNW 7 11 4 6 1009.7 1008.3 1.0
20/10:30pm 27.8 30.3 23.2 76 3.2 NW 15 20 8 11 1009.9 1008.5 1.0
20/10:00pm 27.8 30.3 23.2 76 3.2 NW 15 24 8 13 1009.4 1007.9 1.0
20/09:30pm 27.6 29.9 22.1 72 3.7 NNW 13 17 7 9 1009.1 1007.6 1.0
20/09:00pm 27.0 30.1 22.8 78 2.9 NW 11 15 6 8 1009.0 1007.5 1.0
20/08:30pm 27.0 29.7 22.8 78 2.9 N 13 17 7 9 1008.8 1007.3 1.0
20/08:00pm 26.4 27.3 22.0 77 3.0 N 20 26 11 14 1007.9 1006.4 1.0
20/07:34pm 26.2 25.5 22.5 80 2.5 N 30 37 16 20 1007.9 1006.4 1.0
20/07:30pm 26.0 25.0 22.7 82 2.2 NNE 32 37 17 20 1008.0 1006.5 1.0
20/07:19pm 25.7 24.9 23.0 85 1.8 N 32 46 17 25 1008.4 1006.9 0.8
20/07:00pm 28.6 28.1 21.4 65 4.8 NNE 26 32 14 17 1008.8 1007.3 0.0
20/06:30pm 30.2 27.8 21.0 58 6.2 NE 35 44 19 24 1008.9 1007.4 0.0
20/06:06pm 31.6 29.3 20.5 51 7.4 NNE 33 50 18 27 1008.7 1007.2 0.0
20/06:00pm 33.7 31.4 19.4 43 9.5 N 30 37 16 20 1008.3 1006.8 0.0
20/05:30pm 34.4 31.3 19.6 41 9.9 NNW 35 44 19 24 1006.8 1005.3 0.0
20/05:00pm 35.7 32.2 18.7 36 11.3 NNW 35 43 19 23 1006.4 1004.9 0.0
20/04:30pm 36.2 32.7 18.7 35 11.6 NNW 35 50 19 27 1005.8 1004.3 0.0
20/04:00pm 38.4 34.7 18.3 31 13.3 NNW 35 46 19 25 1005.8 1004.3 0.0
20/03:38pm 39.1 36.1 17.8 28 14.0 NNW 30 48 16 26 1005.9 1004.4 0.0
20/03:30pm 39.7 37.1 17.8 28 14.5 NNW 28 39 15 21 1005.8 1004.3 0.0
20/03:00pm 39.0 36.9 17.2 28 14.3 NW 24 33 13 18 1005.9 1004.4 0.0
20/02:30pm 38.7 37.0 16.3 26 14.5 WNW 20 32 11 17 1006.1 1004.6 0.0
20/02:00pm 39.2 36.5 15.5 24 15.2 NW 24 35 13 19 1006.4 1004.9 0.0
20/01:30pm 40.3 39.8 15.8 23 15.8 NW 13 24 7 13 1007.0 1005.5 0.0
20/01:00pm 39.3 38.7 15.6 24 15.2 ENE 13 28 7 15 1007.6 1006.1 0.0
20/12:30pm 39.9 38.7 16.1 24 15.4 NNW 17 41 9 22 1008.1 1006.6 0.0
20/12:00pm 39.8 38.6 16.1 25 15.3 NE 17 30 9 16 1008.7 1007.2 0.0
20/11:30am 37.8 38.3 15.6 27 14.2 WSW 7 13 4 7 1009.4 1007.9 0.0
20/11:00am 37.6 37.3 15.4 27 14.1 SSE 11 17 6 9 1010.0 1008.6 0.0
20/10:30am 36.7 36.7 15.2 27 13.6 ESE 9 13 5 7 1010.3 1008.9 0.0
20/10:00am 36.3 36.7 15.4 28 13.2 NE 7 15 4 8 1010.9 1009.4 0.0
20/09:30am 35.3 35.1 13.5 27 13.4 S 7 13 4 7 1011.1 1009.6 0.0
20/09:00am 35.0 33.2 12.0 25 13.8 SSE 13 28 7 15 1011.3 1009.8 -
20/08:30am 34.0 31.2 11.2 25 13.5 SSE 17 22 9 12 1011.5 1010.0 -
20/08:00am 33.2 30.3 12.2 28 12.6 SE 19 24 10 13 1011.5 1010.0 -
20/07:30am 32.8 29.7 10.2 25 13.1 SSE 17 24 9 13 1011.5 1010.0 -
20/07:00am 31.2 29.9 12.5 31 11.1 S 11 13 6 7 1011.3 1009.8 -
20/06:30am 29.4 29.7 15.1 41 8.8 SW 7 9 4 5 1010.9 1009.4 -
20/06:00am 27.9 27.5 16.2 49 7.3 SW 13 17 7 9 1010.6 1009.2 -
20/05:30am 26.8 27.6 17.3 56 6.0 SW 9 11 5 6 1010.6 1009.2 -
20/05:00am 26.6 27.4 17.4 57 5.8 SW 9 13 5 7 1010.3 1008.9 -
20/04:30am 27.1 27.0 17.8 56 5.9 WSW 15 20 8 11 1009.9 1008.5 -
20/04:00am 27.1 26.5 18.4 59 5.6 WSW 19 20 10 11 1009.9 1008.5 -
20/03:30am 27.1 27.4 18.7 60 5.4 SW 15 20 8 11 1010.0 1008.6 -
20/03:00am 27.3 26.8 19.1 61 5.3 WSW 20 24 11 13 1010.0 1008.6 0.0
20/02:30am 27.4 27.5 20.0 64 4.9 WSW 19 26 10 14 1009.8 1008.4 -
20/02:00am 27.6 28.4 20.7 66 4.6 WSW 17 24 9 13 1009.8 1008.4 -
20/01:30am 27.9 29.0 20.5 64 4.9 WSW 15 20 8 11 1010.1 1008.7 -
20/01:00am 28.0 29.6 19.2 58 5.7 WNW 9 11 5 6 1010.4 1009.0 -
20/12:30am 28.3 29.2 18.4 55 6.4 WNW 11 15 6 8 1010.8 1009.3 -
20/12:00am 28.2 29.4 19.1 57 5.9 WNW 11 15 6 8 1011.1 1009.6 -
 
Date/Time
WST
Temp
°C
App
Temp
°C
Dew
Point
Rel
Hum
%
Delta-T
°C
Wind Press
QNH
hPa
Press
MSL
hPa
Rain
since 9 am
mm
Dir
 
Spd
km/h
Gust
km/h
Spd
kts
Gust
kts
19/11:30pm 28.5 28.7 18.6 55 6.4 NW 15 19 8 10 1011.4 1009.9 -
19/11:00pm 28.8 28.9 18.3 53 6.8 WNW 15 20 8 11 1011.5 1010.0 -
19/10:30pm 29.0 29.6 18.7 53 6.7 WNW 13 17 7 9 1011.8 1010.3 -
19/10:00pm 29.3 29.1 18.4 51 7.0 WNW 17 24 9 13 1011.8 1010.3 -
19/09:30pm 29.3 29.3 19.0 53 6.7 NW 17 20 9 11 1011.7 1010.2 -
19/09:00pm 29.6 29.8 19.3 54 6.7 NW 17 20 9 11 1011.4 1009.9 0.0
19/08:30pm 30.0 30.3 18.8 51 7.3 NW 15 20 8 11 1011.1 1009.6 -
19/08:00pm 30.5 29.6 18.2 47 8.0 NW 20 28 11 15 1010.9 1009.4 -
19/07:30pm 31.3 29.8 17.6 44 8.8 NW 22 30 12 16 1010.5 1009.1 -
19/07:00pm 32.1 30.4 17.2 41 9.6 NW 22 28 12 15 1010.1 1008.7 -
19/06:30pm 33.2 30.7 17.0 38 10.4 NW 26 32 14 17 1009.7 1008.3 -
19/06:00pm 34.2 31.2 17.8 37 10.7 NW 30 37 16 20 1009.5 1008.1 -
19/05:30pm 35.4 32.9 17.1 33 11.8 NW 26 33 14 18 1009.1 1007.6 -
19/05:00pm 36.1 33.5 17.7 33 12.0 NW 28 35 15 19 1008.8 1007.3 -
19/04:30pm 37.1 34.4 17.6 31 12.7 NNW 28 35 15 19 1008.9 1007.4 -
19/04:00pm 37.1 34.4 17.6 31 12.8 NNW 28 39 15 21 1009.0 1007.5 -
19/03:30pm 38.0 35.8 17.9 30 13.2 NNW 26 37 14 20 1009.0 1007.5 -
19/03:00pm 39.0 37.4 18.3 30 13.7 NNW 24 37 13 20 1009.1 1007.6 -
19/02:30pm 39.3 37.6 18.0 29 14.1 N 24 33 13 18 1009.2 1007.7 -
19/02:00pm 38.6 37.2 17.9 29 13.7 NNW 22 30 12 16 1009.5 1008.1 -
19/01:30pm 38.6 37.6 17.9 29 13.6 N 20 30 11 16 1009.7 1008.3 -

Other Formats:

Comma delimited format used in spreadsheet applications
http://www.bom.gov.au/fwo/IDW60801/IDW60801.99311.axf

JavaScript Object Notation format (JSON) in row-major order
http://www.bom.gov.au/fwo/IDW60801/IDW60801.99311.json